Disclaimer

Please do not use the information listed here in-flight or in-navigation, as they are not provided to us by the airports but are provided by volunteers, so they might be outdated.

Search


Regions


Airport information page

Radio informations:
Tower (TWR) - 122.1 MHz
OPS - 5725 MHz
Ground (GND) - 122.1 MHz
Automatic Terminal Information Service (ATIS) - 231.85 MHz
Approach (APP) - 134.05 MHz

Airport informations:
Latitude: 50° 05' 09.93" N
Longitude: 005° 15' 20.56" W
Elevation: 267 feet - 81 meters
Operating hours: Remarks
Operating agency: Military
Timezone: UTC 0(+1DT) - Last Sunday in March to last Sunday in October
Fuel: N/A

Runway information:
07/25 - 3372 x 151 feet< - >1028 x 46 meters
12/30 - 6006 x 151 feet< - >1831 x 46 meters
18/36 - 3448 x 151 feet< - >1051 x 46 meters

Recent METARs:
EGDR 192050Z AUTO 05015KT 9999 // NCD 05/01 Q1013
EGDR 192050Z AUTO 05015KT 9999 // NCD 05/01 Q1013
EGDR 192150Z AUTO 04018KT 9999 // NCD 05/01 Q1013

Airport on the map: